sensor_id;sensor_type;location;lat;lon;timestamp;P1;durP1;ratioP1;P2;durP2;ratioP2
40152;SDS011;26371;56.992;23.912;2023-11-18T00:00:33;6.80;;;2.40;;
40152;SDS011;26371;56.992;23.912;2023-11-18T00:03:01;7.07;;;2.13;;
40152;SDS011;26371;56.992;23.912;2023-11-18T00:05:32;5.57;;;2.30;;
40152;SDS011;26371;56.992;23.912;2023-11-18T00:08:01;4.22;;;2.03;;
40152;SDS011;26371;56.992;23.912;2023-11-18T00:10:31;6.97;;;2.45;;
40152;SDS011;26371;56.992;23.912;2023-11-18T00:13:01;5.60;;;2.30;;
40152;SDS011;26371;56.992;23.912;2023-11-18T00:15:30;5.43;;;2.28;;
40152;SDS011;26371;56.992;23.912;2023-11-18T00:18:01;5.90;;;2.45;;
40152;SDS011;26371;56.992;23.912;2023-11-18T00:20:30;7.27;;;2.53;;
40152;SDS011;26371;56.992;23.912;2023-11-18T00:22:58;6.88;;;2.30;;
40152;SDS011;26371;56.992;23.912;2023-11-18T00:25:27;6.63;;;2.50;;
40152;SDS011;26371;56.992;23.912;2023-11-18T00:27:56;6.63;;;2.47;;
40152;SDS011;26371;56.992;23.912;2023-11-18T00:30:26;8.60;;;2.83;;
40152;SDS011;26371;56.992;23.912;2023-11-18T00:32:55;6.50;;;2.42;;
40152;SDS011;26371;56.992;23.912;2023-11-18T00:35:24;6.50;;;2.50;;
40152;SDS011;26371;56.992;23.912;2023-11-18T00:37:53;6.75;;;2.60;;
40152;SDS011;26371;56.992;23.912;2023-11-18T00:40:22;5.38;;;2.55;;
40152;SDS011;26371;56.992;23.912;2023-11-18T00:42:51;6.60;;;2.50;;
40152;SDS011;26371;56.992;23.912;2023-11-18T00:45:20;6.70;;;2.75;;
40152;SDS011;26371;56.992;23.912;2023-11-18T00:47:51;5.35;;;2.75;;
40152;SDS011;26371;56.992;23.912;2023-11-18T00:50:21;5.97;;;2.30;;
40152;SDS011;26371;56.992;23.912;2023-11-18T00:52:50;5.97;;;2.50;;
40152;SDS011;26371;56.992;23.912;2023-11-18T00:55:18;5.70;;;2.20;;
40152;SDS011;26371;56.992;23.912;2023-11-18T00:57:47;6.17;;;2.50;;
40152;SDS011;26371;56.992;23.912;2023-11-18T01:00:16;6.63;;;1.90;;
40152;SDS011;26371;56.992;23.912;2023-11-18T01:02:49;5.70;;;2.55;;
40152;SDS011;26371;56.992;23.912;2023-11-18T01:05:20;5.82;;;1.90;;
40152;SDS011;26371;56.992;23.912;2023-11-18T01:07:49;6.07;;;2.10;;
40152;SDS011;26371;56.992;23.912;2023-11-18T01:10:18;4.32;;;1.80;;
40152;SDS011;26371;56.992;23.912;2023-11-18T01:12:46;5.32;;;1.95;;
40152;SDS011;26371;56.992;23.912;2023-11-18T01:15:15;4.82;;;2.05;;
40152;SDS011;26371;56.992;23.912;2023-11-18T01:17:44;5.95;;;1.65;;
40152;SDS011;26371;56.992;23.912;2023-11-18T01:20:15;5.70;;;1.88;;
40152;SDS011;26371;56.992;23.912;2023-11-18T01:22:49;5.55;;;1.85;;
40152;SDS011;26371;56.992;23.912;2023-11-18T01:25:18;5.47;;;1.85;;
40152;SDS011;26371;56.992;23.912;2023-11-18T01:27:47;5.05;;;1.73;;
40152;SDS011;26371;56.992;23.912;2023-11-18T01:30:15;5.70;;;2.10;;
40152;SDS011;26371;56.992;23.912;2023-11-18T01:32:45;5.45;;;1.70;;
40152;SDS011;26371;56.992;23.912;2023-11-18T01:35:15;4.83;;;1.80;;
40152;SDS011;26371;56.992;23.912;2023-11-18T01:37:44;4.07;;;1.50;;
40152;SDS011;26371;56.992;23.912;2023-11-18T01:40:15;4.68;;;1.85;;
40152;SDS011;26371;56.992;23.912;2023-11-18T01:42:44;5.68;;;1.92;;
40152;SDS011;26371;56.992;23.912;2023-11-18T01:45:13;5.25;;;1.85;;
40152;SDS011;26371;56.992;23.912;2023-11-18T01:47:43;4.82;;;2.05;;
40152;SDS011;26371;56.992;23.912;2023-11-18T01:50:16;4.35;;;1.67;;
40152;SDS011;26371;56.992;23.912;2023-11-18T01:52:47;4.28;;;1.70;;
40152;SDS011;26371;56.992;23.912;2023-11-18T01:55:16;3.58;;;1.42;;
40152;SDS011;26371;56.992;23.912;2023-11-18T01:57:45;4.55;;;1.90;;
40152;SDS011;26371;56.992;23.912;2023-11-18T02:00:14;5.13;;;1.80;;
40152;SDS011;26371;56.992;23.912;2023-11-18T02:02:45;5.30;;;2.00;;
40152;SDS011;26371;56.992;23.912;2023-11-18T02:05:14;6.00;;;1.73;;
40152;SDS011;26371;56.992;23.912;2023-11-18T02:07:45;5.65;;;2.08;;
40152;SDS011;26371;56.992;23.912;2023-11-18T02:10:14;5.72;;;2.17;;
40152;SDS011;26371;56.992;23.912;2023-11-18T02:12:46;3.70;;;1.52;;
40152;SDS011;26371;56.992;23.912;2023-11-18T02:15:23;4.78;;;1.48;;
40152;SDS011;26371;56.992;23.912;2023-11-18T02:17:53;5.13;;;1.90;;
40152;SDS011;26371;56.992;23.912;2023-11-18T02:20:27;5.28;;;1.50;;
40152;SDS011;26371;56.992;23.912;2023-11-18T02:22:57;7.40;;;1.80;;
40152;SDS011;26371;56.992;23.912;2023-11-18T02:25:27;4.10;;;1.67;;
40152;SDS011;26371;56.992;23.912;2023-11-18T02:27:58;4.78;;;1.65;;
40152;SDS011;26371;56.992;23.912;2023-11-18T02:30:27;4.75;;;1.77;;
40152;SDS011;26371;56.992;23.912;2023-11-18T02:32:58;4.78;;;2.15;;
40152;SDS011;26371;56.992;23.912;2023-11-18T02:35:34;3.58;;;1.55;;
40152;SDS011;26371;56.992;23.912;2023-11-18T02:38:05;5.70;;;2.03;;
40152;SDS011;26371;56.992;23.912;2023-11-18T02:40:37;4.35;;;1.60;;
40152;SDS011;26371;56.992;23.912;2023-11-18T02:43:12;3.72;;;1.50;;
40152;SDS011;26371;56.992;23.912;2023-11-18T02:45:43;4.70;;;1.67;;
40152;SDS011;26371;56.992;23.912;2023-11-18T02:48:13;5.38;;;1.52;;
40152;SDS011;26371;56.992;23.912;2023-11-18T02:50:44;3.50;;;1.40;;
40152;SDS011;26371;56.992;23.912;2023-11-18T02:53:13;6.60;;;1.90;;
40152;SDS011;26371;56.992;23.912;2023-11-18T02:55:42;5.32;;;1.70;;
40152;SDS011;26371;56.992;23.912;2023-11-18T02:58:12;4.70;;;2.10;;
40152;SDS011;26371;56.992;23.912;2023-11-18T03:00:40;5.97;;;1.90;;
40152;SDS011;26371;56.992;23.912;2023-11-18T03:03:12;6.40;;;2.00;;
40152;SDS011;26371;56.992;23.912;2023-11-18T03:05:41;4.70;;;1.90;;
40152;SDS011;26371;56.992;23.912;2023-11-18T03:08:10;5.10;;;1.50;;
40152;SDS011;26371;56.992;23.912;2023-11-18T03:10:39;7.60;;;1.98;;
40152;SDS011;26371;56.992;23.912;2023-11-18T03:13:12;5.40;;;1.92;;
40152;SDS011;26371;56.992;23.912;2023-11-18T03:15:41;5.97;;;1.60;;
40152;SDS011;26371;56.992;23.912;2023-11-18T03:18:09;4.93;;;1.58;;
40152;SDS011;26371;56.992;23.912;2023-11-18T03:20:38;4.97;;;1.88;;
40152;SDS011;26371;56.992;23.912;2023-11-18T03:23:07;5.82;;;2.20;;
40152;SDS011;26371;56.992;23.912;2023-11-18T03:25:36;4.13;;;1.83;;
40152;SDS011;26371;56.992;23.912;2023-11-18T03:28:05;3.65;;;1.70;;
40152;SDS011;26371;56.992;23.912;2023-11-18T03:30:36;5.20;;;2.13;;
40152;SDS011;26371;56.992;23.912;2023-11-18T03:33:04;4.82;;;1.58;;
40152;SDS011;26371;56.992;23.912;2023-11-18T03:35:38;5.13;;;1.83;;
40152;SDS011;26371;56.992;23.912;2023-11-18T03:38:06;3.72;;;1.40;;
40152;SDS011;26371;56.992;23.912;2023-11-18T03:40:35;4.70;;;1.43;;
40152;SDS011;26371;56.992;23.912;2023-11-18T03:43:04;4.78;;;1.45;;
40152;SDS011;26371;56.992;23.912;2023-11-18T03:45:35;5.70;;;1.60;;
40152;SDS011;26371;56.992;23.912;2023-11-18T03:48:07;6.40;;;1.90;;
40152;SDS011;26371;56.992;23.912;2023-11-18T03:50:35;3.90;;;1.67;;
40152;SDS011;26371;56.992;23.912;2023-11-18T03:53:05;7.32;;;1.92;;
40152;SDS011;26371;56.992;23.912;2023-11-18T03:55:34;4.00;;;1.50;;
40152;SDS011;26371;56.992;23.912;2023-11-18T03:58:03;6.03;;;2.05;;
40152;SDS011;26371;56.992;23.912;2023-11-18T04:00:31;5.60;;;1.90;;
40152;SDS011;26371;56.992;23.912;2023-11-18T04:03:01;5.10;;;1.95;;
40152;SDS011;26371;56.992;23.912;2023-11-18T04:05:34;6.00;;;2.15;;
40152;SDS011;26371;56.992;23.912;2023-11-18T04:10:33;4.47;;;1.65;;
40152;SDS011;26371;56.992;23.912;2023-11-18T04:13:01;3.85;;;1.50;;
40152;SDS011;26371;56.992;23.912;2023-11-18T04:15:30;4.40;;;1.63;;
40152;SDS011;26371;56.992;23.912;2023-11-18T04:17:59;4.37;;;1.87;;
40152;SDS011;26371;56.992;23.912;2023-11-18T04:20:30;5.30;;;1.75;;
40152;SDS011;26371;56.992;23.912;2023-11-18T04:22:59;5.40;;;2.17;;
40152;SDS011;26371;56.992;23.912;2023-11-18T04:25:28;4.65;;;1.73;;
40152;SDS011;26371;56.992;23.912;2023-11-18T04:27:57;4.53;;;1.77;;
40152;SDS011;26371;56.992;23.912;2023-11-18T04:30:25;5.35;;;1.98;;
40152;SDS011;26371;56.992;23.912;2023-11-18T04:32:54;4.63;;;1.80;;
40152;SDS011;26371;56.992;23.912;2023-11-18T04:35:23;4.63;;;1.83;;
40152;SDS011;26371;56.992;23.912;2023-11-18T04:37:53;4.97;;;1.65;;
40152;SDS011;26371;56.992;23.912;2023-11-18T04:40:23;5.45;;;2.15;;
40152;SDS011;26371;56.992;23.912;2023-11-18T04:42:51;4.90;;;1.88;;
40152;SDS011;26371;56.992;23.912;2023-11-18T04:45:20;5.78;;;2.00;;
40152;SDS011;26371;56.992;23.912;2023-11-18T04:47:49;4.93;;;2.10;;
40152;SDS011;26371;56.992;23.912;2023-11-18T04:50:18;5.40;;;2.08;;
40152;SDS011;26371;56.992;23.912;2023-11-18T04:52:47;5.35;;;2.17;;
40152;SDS011;26371;56.992;23.912;2023-11-18T04:55:17;5.07;;;2.00;;
40152;SDS011;26371;56.992;23.912;2023-11-18T04:57:47;6.10;;;2.20;;
40152;SDS011;26371;56.992;23.912;2023-11-18T05:00:15;5.70;;;2.13;;
40152;SDS011;26371;56.992;23.912;2023-11-18T05:02:46;5.32;;;1.75;;
40152;SDS011;26371;56.992;23.912;2023-11-18T05:05:15;7.03;;;2.10;;
40152;SDS011;26371;56.992;23.912;2023-11-18T05:07:45;4.65;;;1.85;;
40152;SDS011;26371;56.992;23.912;2023-11-18T05:10:14;4.55;;;1.80;;
40152;SDS011;26371;56.992;23.912;2023-11-18T05:12:44;5.25;;;2.17;;
40152;SDS011;26371;56.992;23.912;2023-11-18T05:15:22;4.25;;;1.70;;
40152;SDS011;26371;56.992;23.912;2023-11-18T05:17:52;6.07;;;2.00;;
40152;SDS011;26371;56.992;23.912;2023-11-18T05:20:21;4.75;;;1.63;;
40152;SDS011;26371;56.992;23.912;2023-11-18T05:22:50;6.63;;;1.77;;
40152;SDS011;26371;56.992;23.912;2023-11-18T05:25:19;7.95;;;2.17;;
40152;SDS011;26371;56.992;23.912;2023-11-18T05:27:49;6.90;;;2.03;;
40152;SDS011;26371;56.992;23.912;2023-11-18T05:30:18;6.28;;;1.88;;
40152;SDS011;26371;56.992;23.912;2023-11-18T05:32:46;6.38;;;2.05;;
40152;SDS011;26371;56.992;23.912;2023-11-18T05:35:16;7.53;;;2.50;;
40152;SDS011;26371;56.992;23.912;2023-11-18T05:37:44;8.13;;;2.97;;
40152;SDS011;26371;56.992;23.912;2023-11-18T05:40:14;7.68;;;2.70;;
40152;SDS011;26371;56.992;23.912;2023-11-18T05:42:43;8.15;;;3.67;;
40152;SDS011;26371;56.992;23.912;2023-11-18T05:45:16;6.95;;;2.63;;
40152;SDS011;26371;56.992;23.912;2023-11-18T05:47:55;7.03;;;2.90;;
40152;SDS011;26371;56.992;23.912;2023-11-18T05:50:24;6.93;;;3.17;;
40152;SDS011;26371;56.992;23.912;2023-11-18T05:52:53;7.30;;;2.65;;
40152;SDS011;26371;56.992;23.912;2023-11-18T05:57:51;4.80;;;2.05;;
40152;SDS011;26371;56.992;23.912;2023-11-18T06:00:21;8.93;;;2.05;;
40152;SDS011;26371;56.992;23.912;2023-11-18T06:03:01;4.90;;;1.77;;
40152;SDS011;26371;56.992;23.912;2023-11-18T06:05:30;6.05;;;2.15;;
40152;SDS011;26371;56.992;23.912;2023-11-18T06:08:02;4.82;;;1.85;;
40152;SDS011;26371;56.992;23.912;2023-11-18T06:10:31;4.03;;;1.60;;
40152;SDS011;26371;56.992;23.912;2023-11-18T06:13:01;6.32;;;2.10;;
40152;SDS011;26371;56.992;23.912;2023-11-18T06:15:32;4.70;;;1.67;;
40152;SDS011;26371;56.992;23.912;2023-11-18T06:18:02;4.82;;;1.58;;
40152;SDS011;26371;56.992;23.912;2023-11-18T06:20:33;4.28;;;1.70;;
40152;SDS011;26371;56.992;23.912;2023-11-18T06:23:02;4.75;;;1.75;;
40152;SDS011;26371;56.992;23.912;2023-11-18T06:25:31;4.93;;;1.90;;
40152;SDS011;26371;56.992;23.912;2023-11-18T06:28:02;5.00;;;2.00;;
40152;SDS011;26371;56.992;23.912;2023-11-18T06:30:36;6.00;;;2.33;;
40152;SDS011;26371;56.992;23.912;2023-11-18T06:33:05;5.40;;;2.38;;
40152;SDS011;26371;56.992;23.912;2023-11-18T06:35:34;5.67;;;2.07;;
40152;SDS011;26371;56.992;23.912;2023-11-18T06:38:02;5.22;;;1.58;;
40152;SDS011;26371;56.992;23.912;2023-11-18T06:40:31;4.38;;;1.70;;
40152;SDS011;26371;56.992;23.912;2023-11-18T06:43:02;3.85;;;1.63;;
40152;SDS011;26371;56.992;23.912;2023-11-18T06:45:43;5.30;;;1.73;;
40152;SDS011;26371;56.992;23.912;2023-11-18T06:48:11;5.65;;;2.05;;
40152;SDS011;26371;56.992;23.912;2023-11-18T06:50:42;6.25;;;1.85;;
40152;SDS011;26371;56.992;23.912;2023-11-18T06:53:11;6.63;;;1.90;;
40152;SDS011;26371;56.992;23.912;2023-11-18T06:55:41;4.10;;;1.67;;
40152;SDS011;26371;56.992;23.912;2023-11-18T06:58:10;4.75;;;1.73;;
40152;SDS011;26371;56.992;23.912;2023-11-18T07:00:40;6.25;;;1.77;;
40152;SDS011;26371;56.992;23.912;2023-11-18T07:03:10;4.70;;;2.00;;
40152;SDS011;26371;56.992;23.912;2023-11-18T07:05:40;5.28;;;2.83;;
40152;SDS011;26371;56.992;23.912;2023-11-18T07:08:08;5.68;;;2.60;;
40152;SDS011;26371;56.992;23.912;2023-11-18T07:10:40;5.95;;;2.45;;
40152;SDS011;26371;56.992;23.912;2023-11-18T07:13:09;6.55;;;2.85;;
40152;SDS011;26371;56.992;23.912;2023-11-18T07:15:37;12.00;;;3.97;;
40152;SDS011;26371;56.992;23.912;2023-11-18T07:18:06;8.18;;;3.10;;
40152;SDS011;26371;56.992;23.912;2023-11-18T07:20:37;6.05;;;2.60;;
40152;SDS011;26371;56.992;23.912;2023-11-18T07:23:06;7.97;;;3.17;;
40152;SDS011;26371;56.992;23.912;2023-11-18T07:25:35;6.80;;;2.92;;
40152;SDS011;26371;56.992;23.912;2023-11-18T07:28:04;7.32;;;2.72;;
40152;SDS011;26371;56.992;23.912;2023-11-18T07:30:35;7.15;;;2.47;;
40152;SDS011;26371;56.992;23.912;2023-11-18T07:33:04;5.60;;;2.17;;
40152;SDS011;26371;56.992;23.912;2023-11-18T07:35:36;6.53;;;2.30;;
40152;SDS011;26371;56.992;23.912;2023-11-18T07:38:05;5.78;;;2.28;;
40152;SDS011;26371;56.992;23.912;2023-11-18T07:40:34;8.43;;;2.43;;
40152;SDS011;26371;56.992;23.912;2023-11-18T07:43:04;5.70;;;2.80;;
40152;SDS011;26371;56.992;23.912;2023-11-18T07:45:34;6.63;;;2.40;;
40152;SDS011;26371;56.992;23.912;2023-11-18T07:48:04;6.50;;;1.92;;
40152;SDS011;26371;56.992;23.912;2023-11-18T07:50:34;5.60;;;2.05;;
40152;SDS011;26371;56.992;23.912;2023-11-18T07:53:04;7.53;;;2.75;;
40152;SDS011;26371;56.992;23.912;2023-11-18T07:55:33;9.93;;;2.97;;
40152;SDS011;26371;56.992;23.912;2023-11-18T07:58:01;6.22;;;2.50;;
40152;SDS011;26371;56.992;23.912;2023-11-18T08:00:30;6.13;;;2.77;;
40152;SDS011;26371;56.992;23.912;2023-11-18T08:03:00;10.75;;;2.58;;
40152;SDS011;26371;56.992;23.912;2023-11-18T08:05:28;7.40;;;2.78;;
40152;SDS011;26371;56.992;23.912;2023-11-18T08:10:28;8.18;;;3.03;;
40152;SDS011;26371;56.992;23.912;2023-11-18T08:12:59;5.85;;;2.13;;
40152;SDS011;26371;56.992;23.912;2023-11-18T08:15:28;5.43;;;2.10;;
40152;SDS011;26371;56.992;23.912;2023-11-18T08:17:58;7.55;;;3.00;;
40152;SDS011;26371;56.992;23.912;2023-11-18T08:20:26;8.15;;;2.42;;
40152;SDS011;26371;56.992;23.912;2023-11-18T08:22:55;6.18;;;2.35;;
40152;SDS011;26371;56.992;23.912;2023-11-18T08:25:24;9.55;;;2.88;;
40152;SDS011;26371;56.992;23.912;2023-11-18T08:27:54;7.18;;;2.80;;
40152;SDS011;26371;56.992;23.912;2023-11-18T08:30:23;7.30;;;3.65;;
40152;SDS011;26371;56.992;23.912;2023-11-18T08:32:52;7.50;;;3.42;;
40152;SDS011;26371;56.992;23.912;2023-11-18T08:35:21;10.25;;;4.55;;
40152;SDS011;26371;56.992;23.912;2023-11-18T08:37:50;13.80;;;5.65;;
40152;SDS011;26371;56.992;23.912;2023-11-18T08:40:19;13.90;;;5.13;;
40152;SDS011;26371;56.992;23.912;2023-11-18T08:42:49;13.63;;;5.82;;
40152;SDS011;26371;56.992;23.912;2023-11-18T08:47:54;12.35;;;4.55;;
40152;SDS011;26371;56.992;23.912;2023-11-18T08:50:23;10.38;;;3.85;;
40152;SDS011;26371;56.992;23.912;2023-11-18T08:52:53;7.22;;;3.42;;
40152;SDS011;26371;56.992;23.912;2023-11-18T08:55:26;8.73;;;3.17;;
40152;SDS011;26371;56.992;23.912;2023-11-18T08:58:07;7.18;;;2.83;;
40152;SDS011;26371;56.992;23.912;2023-11-18T09:00:49;6.78;;;1.98;;
40152;SDS011;26371;56.992;23.912;2023-11-18T09:03:22;4.90;;;2.13;;
40152;SDS011;26371;56.992;23.912;2023-11-18T09:05:54;4.30;;;1.85;;
40152;SDS011;26371;56.992;23.912;2023-11-18T09:08:25;5.32;;;2.13;;
40152;SDS011;26371;56.992;23.912;2023-11-18T09:10:56;5.68;;;2.00;;
40152;SDS011;26371;56.992;23.912;2023-11-18T09:13:26;5.63;;;2.00;;
40152;SDS011;26371;56.992;23.912;2023-11-18T09:16:00;4.93;;;1.98;;
40152;SDS011;26371;56.992;23.912;2023-11-18T09:18:30;5.00;;;1.70;;
40152;SDS011;26371;56.992;23.912;2023-11-18T09:21:04;6.03;;;2.17;;
40152;SDS011;26371;56.992;23.912;2023-11-18T09:26:02;5.35;;;2.10;;
40152;SDS011;26371;56.992;23.912;2023-11-18T09:28:34;11.82;;;2.45;;
40152;SDS011;26371;56.992;23.912;2023-11-18T09:31:06;8.65;;;3.60;;
40152;SDS011;26371;56.992;23.912;2023-11-18T09:33:39;13.10;;;3.78;;
40152;SDS011;26371;56.992;23.912;2023-11-18T09:36:14;7.38;;;2.83;;
40152;SDS011;26371;56.992;23.912;2023-11-18T09:38:45;7.03;;;2.63;;
40152;SDS011;26371;56.992;23.912;2023-11-18T09:41:15;6.63;;;2.50;;
40152;SDS011;26371;56.992;23.912;2023-11-18T09:43:45;5.45;;;2.00;;
40152;SDS011;26371;56.992;23.912;2023-11-18T09:46:17;5.60;;;1.90;;
40152;SDS011;26371;56.992;23.912;2023-11-18T09:48:51;6.70;;;2.22;;
40152;SDS011;26371;56.992;23.912;2023-11-18T09:51:27;7.43;;;2.70;;
40152;SDS011;26371;56.992;23.912;2023-11-18T09:53:58;7.68;;;3.70;;
40152;SDS011;26371;56.992;23.912;2023-11-18T09:56:30;13.30;;;5.85;;
40152;SDS011;26371;56.992;23.912;2023-11-18T09:59:08;12.27;;;5.63;;
40152;SDS011;26371;56.992;23.912;2023-11-18T10:01:46;7.40;;;2.92;;
40152;SDS011;26371;56.992;23.912;2023-11-18T10:04:20;4.75;;;1.90;;
40152;SDS011;26371;56.992;23.912;2023-11-18T10:06:49;4.57;;;1.93;;
40152;SDS011;26371;56.992;23.912;2023-11-18T10:09:20;4.95;;;1.90;;
40152;SDS011;26371;56.992;23.912;2023-11-18T10:11:55;5.75;;;1.85;;
40152;SDS011;26371;56.992;23.912;2023-11-18T10:14:32;4.30;;;1.70;;
40152;SDS011;26371;56.992;23.912;2023-11-18T10:17:06;5.35;;;2.28;;
40152;SDS011;26371;56.992;23.912;2023-11-18T10:19:51;5.32;;;2.15;;
40152;SDS011;26371;56.992;23.912;2023-11-18T10:22:23;6.15;;;2.22;;
40152;SDS011;26371;56.992;23.912;2023-11-18T10:24:53;6.70;;;2.42;;
40152;SDS011;26371;56.992;23.912;2023-11-18T10:27:23;5.63;;;2.20;;
40152;SDS011;26371;56.992;23.912;2023-11-18T10:29:56;6.82;;;2.63;;
40152;SDS011;26371;56.992;23.912;2023-11-18T10:32:26;5.95;;;2.50;;
40152;SDS011;26371;56.992;23.912;2023-11-18T10:34:55;5.90;;;2.70;;
40152;SDS011;26371;56.992;23.912;2023-11-18T10:37:25;6.53;;;2.53;;
40152;SDS011;26371;56.992;23.912;2023-11-18T10:40:01;7.18;;;3.03;;
40152;SDS011;26371;56.992;23.912;2023-11-18T10:42:32;7.28;;;3.60;;
40152;SDS011;26371;56.992;23.912;2023-11-18T10:45:01;7.45;;;2.78;;
40152;SDS011;26371;56.992;23.912;2023-11-18T10:47:33;6.95;;;3.15;;
40152;SDS011;26371;56.992;23.912;2023-11-18T10:50:06;7.95;;;3.17;;
40152;SDS011;26371;56.992;23.912;2023-11-18T10:52:37;7.38;;;3.20;;
40152;SDS011;26371;56.992;23.912;2023-11-18T10:55:08;7.25;;;2.97;;
40152;SDS011;26371;56.992;23.912;2023-11-18T10:57:40;6.93;;;2.58;;
40152;SDS011;26371;56.992;23.912;2023-11-18T11:00:10;7.03;;;2.88;;
40152;SDS011;26371;56.992;23.912;2023-11-18T11:02:47;6.93;;;3.13;;
40152;SDS011;26371;56.992;23.912;2023-11-18T11:05:27;6.40;;;2.65;;
40152;SDS011;26371;56.992;23.912;2023-11-18T11:08:00;6.70;;;2.58;;
40152;SDS011;26371;56.992;23.912;2023-11-18T11:10:32;7.38;;;2.55;;
40152;SDS011;26371;56.992;23.912;2023-11-18T11:13:02;8.40;;;3.13;;
40152;SDS011;26371;56.992;23.912;2023-11-18T11:15:36;6.38;;;2.75;;
40152;SDS011;26371;56.992;23.912;2023-11-18T11:18:24;7.15;;;2.78;;
40152;SDS011;26371;56.992;23.912;2023-11-18T11:21:06;7.72;;;2.83;;
40152;SDS011;26371;56.992;23.912;2023-11-18T11:23:47;7.97;;;3.40;;
40152;SDS011;26371;56.992;23.912;2023-11-18T11:29:18;9.82;;;3.50;;
40152;SDS011;26371;56.992;23.912;2023-11-18T11:31:59;8.02;;;3.22;;
40152;SDS011;26371;56.992;23.912;2023-11-18T11:34:43;7.68;;;2.95;;
40152;SDS011;26371;56.992;23.912;2023-11-18T11:37:21;6.63;;;2.55;;
40152;SDS011;26371;56.992;23.912;2023-11-18T11:39:53;8.07;;;2.78;;
40152;SDS011;26371;56.992;23.912;2023-11-18T11:42:25;7.28;;;2.70;;
40152;SDS011;26371;56.992;23.912;2023-11-18T11:44:55;9.07;;;2.67;;
40152;SDS011;26371;56.992;23.912;2023-11-18T11:47:25;8.27;;;2.97;;
40152;SDS011;26371;56.992;23.912;2023-11-18T11:49:59;9.15;;;3.13;;
40152;SDS011;26371;56.992;23.912;2023-11-18T11:52:37;7.70;;;2.90;;
40152;SDS011;26371;56.992;23.912;2023-11-18T11:55:12;7.25;;;3.30;;
40152;SDS011;26371;56.992;23.912;2023-11-18T11:57:50;7.53;;;3.40;;
40152;SDS011;26371;56.992;23.912;2023-11-18T12:00:20;7.47;;;3.03;;
40152;SDS011;26371;56.992;23.912;2023-11-18T12:02:53;7.13;;;2.97;;
40152;SDS011;26371;56.992;23.912;2023-11-18T12:05:24;9.68;;;4.13;;
40152;SDS011;26371;56.992;23.912;2023-11-18T12:07:54;10.45;;;4.15;;
40152;SDS011;26371;56.992;23.912;2023-11-18T12:10:29;17.20;;;5.13;;
40152;SDS011;26371;56.992;23.912;2023-11-18T12:13:08;25.95;;;11.50;;
40152;SDS011;26371;56.992;23.912;2023-11-18T12:15:47;18.00;;;7.63;;
40152;SDS011;26371;56.992;23.912;2023-11-18T12:18:21;14.10;;;5.18;;
40152;SDS011;26371;56.992;23.912;2023-11-18T12:20:52;9.73;;;4.40;;
40152;SDS011;26371;56.992;23.912;2023-11-18T12:23:28;7.30;;;3.80;;
40152;SDS011;26371;56.992;23.912;2023-11-18T12:25:58;11.13;;;4.07;;
40152;SDS011;26371;56.992;23.912;2023-11-18T12:28:30;11.70;;;5.20;;
40152;SDS011;26371;56.992;23.912;2023-11-18T12:31:02;12.13;;;4.82;;
40152;SDS011;26371;56.992;23.912;2023-11-18T12:34:02;9.30;;;3.97;;
40152;SDS011;26371;56.992;23.912;2023-11-18T12:36:58;9.20;;;3.83;;
40152;SDS011;26371;56.992;23.912;2023-11-18T12:43:01;7.80;;;3.38;;
40152;SDS011;26371;56.992;23.912;2023-11-18T12:45:42;11.82;;;3.92;;
40152;SDS011;26371;56.992;23.912;2023-11-18T12:48:14;19.75;;;8.50;;
40152;SDS011;26371;56.992;23.912;2023-11-18T12:50:43;14.88;;;6.95;;
40152;SDS011;26371;56.992;23.912;2023-11-18T12:53:14;10.80;;;4.13;;
40152;SDS011;26371;56.992;23.912;2023-11-18T12:55:45;17.73;;;6.78;;
40152;SDS011;26371;56.992;23.912;2023-11-18T12:58:17;23.85;;;9.07;;
40152;SDS011;26371;56.992;23.912;2023-11-18T13:00:46;9.50;;;4.15;;
40152;SDS011;26371;56.992;23.912;2023-11-18T13:03:17;9.65;;;3.70;;
40152;SDS011;26371;56.992;23.912;2023-11-18T13:05:47;8.35;;;3.92;;
40152;SDS011;26371;56.992;23.912;2023-11-18T13:08:20;7.50;;;3.47;;
40152;SDS011;26371;56.992;23.912;2023-11-18T13:10:49;9.20;;;3.75;;
40152;SDS011;26371;56.992;23.912;2023-11-18T13:13:19;14.32;;;5.35;;
40152;SDS011;26371;56.992;23.912;2023-11-18T13:15:49;9.57;;;4.30;;
40152;SDS011;26371;56.992;23.912;2023-11-18T13:18:18;8.23;;;3.53;;
40152;SDS011;26371;56.992;23.912;2023-11-18T13:20:56;7.15;;;2.90;;
40152;SDS011;26371;56.992;23.912;2023-11-18T13:23:27;18.45;;;7.40;;
40152;SDS011;26371;56.992;23.912;2023-11-18T13:25:57;32.60;;;14.10;;
40152;SDS011;26371;56.992;23.912;2023-11-18T13:28:29;33.65;;;15.55;;
40152;SDS011;26371;56.992;23.912;2023-11-18T13:30:58;14.25;;;5.05;;
40152;SDS011;26371;56.992;23.912;2023-11-18T13:33:28;42.58;;;14.90;;
40152;SDS011;26371;56.992;23.912;2023-11-18T13:35:56;17.15;;;7.35;;
40152;SDS011;26371;56.992;23.912;2023-11-18T13:38:28;15.65;;;9.48;;
40152;SDS011;26371;56.992;23.912;2023-11-18T13:41:09;15.55;;;8.02;;
40152;SDS011;26371;56.992;23.912;2023-11-18T13:43:41;10.15;;;5.32;;
40152;SDS011;26371;56.992;23.912;2023-11-18T13:46:11;8.20;;;3.85;;
40152;SDS011;26371;56.992;23.912;2023-11-18T13:48:40;6.93;;;3.40;;
40152;SDS011;26371;56.992;23.912;2023-11-18T13:51:09;6.78;;;3.20;;
40152;SDS011;26371;56.992;23.912;2023-11-18T13:53:42;7.88;;;3.10;;
40152;SDS011;26371;56.992;23.912;2023-11-18T13:56:11;7.03;;;3.20;;
40152;SDS011;26371;56.992;23.912;2023-11-18T13:58:40;6.68;;;3.15;;
40152;SDS011;26371;56.992;23.912;2023-11-18T14:01:12;9.07;;;3.40;;
40152;SDS011;26371;56.992;23.912;2023-11-18T14:03:41;12.10;;;6.10;;
40152;SDS011;26371;56.992;23.912;2023-11-18T14:06:11;19.27;;;10.07;;
40152;SDS011;26371;56.992;23.912;2023-11-18T14:08:45;10.75;;;5.40;;
40152;SDS011;26371;56.992;23.912;2023-11-18T14:11:14;11.00;;;4.30;;
40152;SDS011;26371;56.992;23.912;2023-11-18T14:13:43;9.82;;;4.68;;
40152;SDS011;26371;56.992;23.912;2023-11-18T14:16:13;8.95;;;3.72;;
40152;SDS011;26371;56.992;23.912;2023-11-18T14:18:43;11.85;;;5.28;;
40152;SDS011;26371;56.992;23.912;2023-11-18T14:21:13;14.50;;;5.97;;
40152;SDS011;26371;56.992;23.912;2023-11-18T14:23:42;13.10;;;5.85;;
40152;SDS011;26371;56.992;23.912;2023-11-18T14:26:12;11.05;;;4.97;;
40152;SDS011;26371;56.992;23.912;2023-11-18T14:28:41;8.60;;;3.80;;
40152;SDS011;26371;56.992;23.912;2023-11-18T14:31:10;9.45;;;4.15;;
40152;SDS011;26371;56.992;23.912;2023-11-18T14:33:40;7.10;;;3.20;;
40152;SDS011;26371;56.992;23.912;2023-11-18T14:36:09;9.87;;;4.10;;
40152;SDS011;26371;56.992;23.912;2023-11-18T14:38:38;9.23;;;3.72;;
40152;SDS011;26371;56.992;23.912;2023-11-18T14:41:07;10.65;;;3.88;;
40152;SDS011;26371;56.992;23.912;2023-11-18T14:43:37;9.98;;;4.57;;
40152;SDS011;26371;56.992;23.912;2023-11-18T14:46:06;7.50;;;3.80;;
40152;SDS011;26371;56.992;23.912;2023-11-18T14:48:35;8.55;;;4.03;;
40152;SDS011;26371;56.992;23.912;2023-11-18T14:51:04;9.70;;;3.78;;
40152;SDS011;26371;56.992;23.912;2023-11-18T14:53:34;9.15;;;4.32;;
40152;SDS011;26371;56.992;23.912;2023-11-18T14:56:02;7.80;;;3.80;;
40152;SDS011;26371;56.992;23.912;2023-11-18T14:58:33;6.97;;;3.05;;
40152;SDS011;26371;56.992;23.912;2023-11-18T15:01:03;6.90;;;3.60;;
40152;SDS011;26371;56.992;23.912;2023-11-18T15:03:34;10.70;;;4.65;;
40152;SDS011;26371;56.992;23.912;2023-11-18T15:06:04;8.83;;;4.03;;
40152;SDS011;26371;56.992;23.912;2023-11-18T15:08:33;7.93;;;3.72;;
40152;SDS011;26371;56.992;23.912;2023-11-18T15:11:07;10.73;;;4.53;;
40152;SDS011;26371;56.992;23.912;2023-11-18T15:13:35;12.30;;;4.82;;